Daily Tabular Data
[Select Refresh to Update]


4/17/18
Time         Wind Dir   Wind Spd  Wind Gust     Hum In   Humidity    Temp In       Temp  Raw Barom   Tot Rain Wind Chill Heat Ix In Heat Index  Dew Point  DailyRain   HourRain   RainRate
                            mph        mph          %          %         F         F         in         in         F         F         F         F         in         in      in/hr
12:00am           265          3         10         35         68       73.1       51.6      29.28       4.41       51.5       72.6       54.3       41.4       0.00       0.00      0.000
12:30am           269          3         10         35         68       72.9       51.2      29.28       4.41       51.0       72.4       53.9       41.0       0.00       0.00      0.000
1:00am            261          1          7         35         70       72.7       50.6      29.28       4.41       50.6       72.2       53.6       41.2       0.00       0.00      0.000
1:30am            288          0          8         35         72       72.6       50.2      29.27       4.41       50.2       72.1       53.4       41.5       0.00       0.00      0.000
2:00am            288          1          2         35         75       72.4       49.3      29.27       4.41       49.3       71.9       52.9       41.7       0.00       0.00      0.000
2:30am             28          0          1         35         76       72.2       48.1      29.27       4.41       48.1       71.7       51.8       40.9       0.00       0.00      0.000
3:00am             42          0          0         35         76       72.0       47.2      29.27       4.41       47.2       71.5       50.9       40.0       0.00       0.00      0.000
3:30am             84          1          2         34         77       71.8       47.0      29.27       4.41       47.0       71.3       50.8       40.2       0.00       0.00      0.000
4:00am             84          0          3         34         79       71.6       46.4      29.27       4.41       46.4       71.1       50.5       40.3       0.00       0.00      0.000
4:30am             36          1          2         34         80       71.4       45.1      29.27       4.41       45.1       70.9       49.3       39.3       0.00       0.00      0.000
5:00am            341          0          3         34         80       71.2       44.8      29.27       4.41       44.8       70.7       49.0       39.0       0.00       0.00      0.000
5:30am             89          0          2         34         78       70.9       45.5      29.27       4.41       45.5       70.4       49.5       39.1       0.00       0.00      0.000
6:00am              9          0          3         34         79       70.8       44.4      29.28       4.41       44.4       70.3       48.5       38.3       0.00       0.00      0.000
6:30am             71          0          2         34         79       70.5       44.6      29.29       4.41       44.6       70.0       48.7       38.5       0.00       0.00      0.000
7:00am             75          1          3         34         81       70.4       47.6      29.30       4.41       47.6       69.9       52.0       42.1       0.00       0.00      0.000
7:30am            103          0          6         34         68       70.3       50.9      29.32       4.41       50.9       69.8       53.6       40.7       0.00       0.00      0.000
8:00am            111          4          4         33         63       70.4       54.1      29.32       4.41       53.6       69.8       56.2       41.8       0.00       0.00      0.000
8:30am            228          0          5         34         64       70.4       56.5      29.33       4.41       56.5       69.9       58.8       44.5       0.00       0.00      0.000
9:00am            212          1          7         32         52       69.9       58.6      29.33       4.41       58.6       69.2       59.6       41.0       0.00       0.00      0.000
9:30am            130          0          9         35         50       70.0       59.0      29.33       4.41       59.0       69.5       59.8       40.4       0.00       0.00      0.000
10:00am           257          0          8         34         51       70.5       61.4      29.33       4.41       61.4       70.0       62.3       43.1       0.00       0.00      0.000
10:30am           215          0         10         34         43       70.7       60.7      29.34       4.41       60.7       70.2       60.9       38.1       0.00       0.00      0.000
11:00am           155          1          9         34         43       70.9       63.8      29.34       4.41       63.8       70.4       64.0       40.9       0.00       0.00      0.000
11:30am           211          8          8         33         39       71.1       64.3      29.33       4.41       64.2       70.5       64.1       38.8       0.00       0.00      0.000
12:00pm           259          4          9         33         35       71.4       65.7      29.33       4.41       65.7       70.8       65.2       37.3       0.00       0.00      0.000
12:30pm           257          8          9         31         36       71.7       64.6      29.31       4.41       64.5       71.0       64.2       37.1       0.00       0.00      0.000
1:00pm            272          2          8         30         35       71.9       66.2      29.31       4.41       66.2       71.1       65.7       37.8       0.00       0.00      0.000
1:30pm            253          7         13         30         33       72.1       65.9      29.29       4.41       65.9       71.3       65.3       36.0       0.00       0.00      0.000
2:00pm            275          6         14         29         33       72.3       67.1      29.29       4.41       67.1       71.4       66.5       37.1       0.00       0.00      0.000
2:30pm            272          2         12         28         34       72.5       66.8      29.28       4.41       66.8       71.6       66.3       37.6       0.00       0.00      0.000
3:00pm            270          0         13         28         34       72.6       66.9      29.27       4.41       66.9       71.7       66.4       37.6       0.00       0.00      0.000
3:30pm            279          0         14         28         32       72.8       68.2      29.25       4.41       68.2       71.9       67.5       37.2       0.00       0.00      0.000
4:00pm            261          3         11         28         31       72.9       69.3      29.23       4.41       69.3       72.0       68.6       37.4       0.00       0.00      0.000
4:30pm            250          3         14         28         35       73.3       66.5      29.23       4.41       66.5       72.4       66.0       38.0       0.00       0.00      0.000
5:00pm            279          9         11         28         36       73.6       66.5      29.23       4.41       66.5       72.7       66.1       38.7       0.00       0.00      0.000
5:30pm            254          2         14         26         35       73.6       66.0      29.23       4.41       66.0       72.5       65.5       37.6       0.00       0.00      0.000
6:00pm            286          7         11         25         33       73.5       66.1      29.22       4.41       66.1       72.4       65.5       36.2       0.00       0.00      0.000
6:30pm            249          1         12         25         32       73.3       66.3      29.22       4.41       66.3       72.2       65.6       35.6       0.00       0.00      0.000
7:00pm            267          4          6         29         38       73.9       64.3      29.21       4.41       64.3       73.0       64.1       38.2       0.00       0.00      0.000
7:30pm            268          4          8         30         46       74.1       61.4      29.21       4.41       61.4       73.3       61.8       40.5       0.00       0.00      0.000
8:00pm            256          1          7         30         48       74.1       59.6      29.21       4.41       59.6       73.3       60.2       39.9       0.00       0.00      0.000
8:30pm            264          2          4         31         52       74.1       58.4      29.22       4.41       58.4       73.4       59.4       40.9       0.00       0.00      0.000
9:00pm            268          1          6         31         47       74.0       58.7      29.22       4.41       58.7       73.3       59.2       38.5       0.00       0.00      0.000
9:30pm            292          2          5         31         38       74.0       59.1      29.22       4.41       59.1       73.3       58.9       33.5       0.00       0.00      0.000
10:00pm           286          1          3         31         36       73.9       59.0      29.22       4.41       59.0       73.2       58.6       32.1       0.00       0.00      0.000
10:30pm           175          0          1         30         42       73.8       57.5      29.22       4.41       57.5       73.0       57.6       34.6       0.00       0.00      0.000
11:00pm            96          2          4         30         47       73.6       56.3      29.20       4.41       56.3       72.8       56.8       36.3       0.00       0.00      0.000
11:30pm           121          2          9         30         52       73.4       55.8      29.20       4.41       55.8       72.6       56.8       38.5       0.00       0.00      0.000